Time;durP1;ratioP1;P1;durP2;ratioP2;P2;SDS_P1;SDS_P2;PMS_P1;PMS_P2;Temp;Humidity;BMP_temperature;BMP_pressure;BME280_temperature;BME280_humidity;BME280_pressure;Samples;Min_cycle;Max_cycle;Signal;HPM_P1;HPM_P2
2022/12/30 00:01:50;;;;;;;16.70;3.75;;;;;;;;;;4868423;29;20086;-94
2022/12/30 00:04:16;;;;;;;10.70;3.13;;;;;;;;;;4867546;29;20417;-93
2022/12/30 00:06:42;;;;;;;17.33;4.72;;;;;;;;;;4883932;29;20474;-92
2022/12/30 00:09:08;;;;;;;11.02;3.30;;;;;;;;;;4883516;29;20059;-93
2022/12/30 00:11:35;;;;;;;8.77;3.30;;;;;;;;;;4868402;29;20089;-92
2022/12/30 00:34:07;;;;;;;15.35;3.38;;;;;;;;;;4881981;29;20055;-87
2022/12/30 00:36:34;;;;;;;20.20;3.85;;;;;;;;;;4864055;29;20059;-88
2022/12/30 00:39:00;;;;;;;16.98;3.53;;;;;;;;;;4866497;29;20135;-87
2022/12/30 00:44:10;;;;;;;16.65;3.72;;;;;;;;;;4868878;29;20053;-87
2022/12/30 00:46:37;;;;;;;20.30;4.35;;;;;;;;;;4851069;29;20061;-88
2022/12/30 00:57:17;;;;;;;12.48;3.95;;;;;;;;;;4868864;29;20059;-88
2022/12/30 00:59:43;;;;;;;11.38;3.53;;;;;;;;;;4866333;29;20139;-87
2022/12/30 01:02:09;;;;;;;17.35;2.97;;;;;;;;;;4866118;29;20056;-87
2022/12/30 01:04:35;;;;;;;10.45;3.30;;;;;;;;;;4866207;29;20055;-88
2022/12/30 01:07:01;;;;;;;16.63;4.03;;;;;;;;;;4866136;29;20052;-88
2022/12/30 01:09:27;;;;;;;14.55;3.65;;;;;;;;;;4865985;29;20087;-87
2022/12/30 01:12:08;;;;;;;12.93;3.53;;;;;;;;;;4881391;29;20056;-88
2022/12/30 01:14:42;;;;;;;11.48;3.00;;;;;;;;;;4852920;29;20059;-88
2022/12/30 01:17:09;;;;;;;19.80;3.83;;;;;;;;;;4865821;29;20064;-88
2022/12/30 01:19:35;;;;;;;14.63;3.90;;;;;;;;;;4850617;29;20092;-89
2022/12/30 01:22:02;;;;;;;16.40;3.80;;;;;;;;;;4865980;29;20100;-88
2022/12/30 01:24:28;;;;;;;17.23;3.75;;;;;;;;;;4865947;29;20053;-88
2022/12/30 01:26:54;;;;;;;21.10;3.40;;;;;;;;;;4865613;29;20064;-89
2022/12/30 01:29:34;;;;;;;29.33;3.92;;;;;;;;;;4866535;29;20063;-91
2022/12/30 01:32:00;;;;;;;14.15;3.38;;;;;;;;;;4867256;29;20056;-92
2022/12/30 01:34:26;;;;;;;14.85;4.32;;;;;;;;;;4881945;29;20056;-92
2022/12/30 01:36:53;;;;;;;17.55;4.85;;;;;;;;;;4882225;29;20057;-93
2022/12/30 01:39:19;;;;;;;14.90;3.75;;;;;;;;;;4851714;29;20087;-94
2022/12/30 01:41:46;;;;;;;21.70;3.53;;;;;;;;;;4866628;29;20147;-92
2022/12/30 01:44:45;;;;;;;23.23;3.55;;;6.30;99.90;;;;;;4866596;29;20497;-93
2022/12/30 01:47:14;;;;;;;15.25;3.78;;;;;;;;;;4866891;29;20545;-93
2022/12/30 01:49:43;;;;;;;16.05;4.47;;;;;;;;;;4866502;29;20052;-93
2022/12/30 01:52:10;;;;;;;13.65;3.72;;;;;;;;;;4867114;29;20060;-90
2022/12/30 01:54:36;;;;;;;23.98;4.88;;;;;;;;;;4866456;29;20064;-91
2022/12/30 01:57:07;;;;;;;11.98;3.88;;;;;;;;;;4866394;29;20053;-91
2022/12/30 01:59:33;;;;;;;16.90;3.35;;;;;;;;;;4882072;29;20052;-91
2022/12/30 02:01:59;;;;;;;13.68;3.53;;;;;;;;;;4866178;29;20087;-91
2022/12/30 02:04:26;;;;;;;20.80;4.32;;;;;;;;;;4866315;29;20145;-91
2022/12/30 02:07:15;;;;;;;24.92;4.50;;;;;;;;;;4866289;29;20084;-91
2022/12/30 02:09:41;;;;;;;30.13;7.20;;;;;;;;;;4882176;29;20052;-91
2022/12/30 02:12:07;;;;;;;22.95;4.10;;;;;;;;;;4881421;29;20062;-88
2022/12/30 02:14:36;;;;;;;14.18;3.45;;;;;;;;;;4865495;29;20137;-89
2022/12/30 02:17:19;;;;;;;19.65;3.95;;;;;;;;;;4865433;29;20057;-88
2022/12/30 02:19:48;;;;;;;13.18;4.43;;;;;;;;;;4880965;29;20586;-88
2022/12/30 02:22:33;;;;;;;21.15;4.45;;;;;;;;;;4865922;29;20175;-88
2022/12/30 02:25:18;;;;;;;15.50;4.40;;;;;;;;;;4865598;29;20147;-88
2022/12/30 02:27:44;;;;;;;16.13;3.47;;;;;;;;;;4867927;29;20060;-88
2022/12/30 02:30:36;;;;;;;26.48;5.93;;;;;;;;;;4868868;29;20061;-88
2022/12/30 02:33:14;;;;;;;22.42;4.03;;;;;;;;;;4868855;29;20053;-88
2022/12/30 02:36:01;;;;;;;19.25;4.00;;;5.80;99.90;;;;;;4884221;29;20525;-87
2022/12/30 02:38:33;;;;;;;18.23;4.10;;;;;;;;;;4868677;29;20064;-88
2022/12/30 02:46:47;;;;;;;17.48;5.47;;;;;;;;;;4884282;29;20075;-88
2022/12/30 02:49:15;;;;;;;14.30;3.85;;;;;;;;;;4868390;29;20053;-88
2022/12/30 02:54:26;;;;;;;20.88;4.25;;;;;;;;;;4870521;29;20523;-88
2022/12/30 02:56:53;;;;;;;16.63;5.63;;;;;;;;;;4883781;29;20417;-88
2022/12/30 03:04:50;;;;;;;12.35;3.65;;;;;;;;;;4883655;29;20485;-88
2022/12/30 03:07:32;;;;;;;20.30;3.97;;;;;;;;;;4867980;29;20490;-89
2022/12/30 03:13:05;;;;;;;21.67;4.32;;;;;;;;;;4883275;29;20057;-88
2022/12/30 03:15:55;;;;;;;10.27;3.50;;;;;;;;;;4883263;29;20135;-88
2022/12/30 03:18:21;;;;;;;14.45;4.45;;;;;;;;;;4867682;29;20101;-87
2022/12/30 03:20:48;;;;;;;19.90;3.30;;;;;;;;;;4852474;29;20132;-88
2022/12/30 03:28:47;;;;;;;11.50;3.95;;;;;;;;;;4883158;29;20493;-88
2022/12/30 03:31:15;;;;;;;29.13;5.85;;;;;;;;;;4867337;29;20053;-89
2022/12/30 03:33:42;;;;;;;12.50;5.28;;;;;;;;;;4867573;29;20537;-88
2022/12/30 03:36:17;;;;;;;10.30;3.70;;;;;;;;;;4867251;29;20052;-88
2022/12/30 03:39:09;;;;;;;11.98;4.00;;;;;;;;;;4866661;29;20049;-88
2022/12/30 03:41:36;;;;;;;18.17;4.57;;;;;;;;;;4865396;29;20088;-88
2022/12/30 03:44:02;;;;;;;16.02;3.58;;;;;;;;;;4852014;29;20048;-88
2022/12/30 03:46:31;;;;;;;18.48;5.10;;;;;;;;;;4868094;29;20052;-88
2022/12/30 03:48:57;;;;;;;20.73;4.38;;;;;;;;;;4867222;29;20108;-88
2022/12/30 03:51:23;;;;;;;24.10;4.13;;;;;;;;;;4867060;29;20540;-88
2022/12/30 03:53:50;;;;;;;13.68;4.07;;;;;;;;;;4867222;29;20084;-88
2022/12/30 03:56:16;;;;;;;19.67;4.63;;;;;;;;;;4882569;29;20060;-88
2022/12/30 03:58:42;;;;;;;21.08;5.15;;;;;;;;;;4851794;29;20528;-87
2022/12/30 04:01:08;;;;;;;12.77;4.00;;;;;;;;;;4851941;29;20517;-88
2022/12/30 04:03:34;;;;;;;19.75;4.15;;;;;;;;;;4866911;29;20501;-88
2022/12/30 04:06:00;;;;;;;12.90;4.10;;;;;;;;;;4867211;29;20091;-88
2022/12/30 04:08:26;;;;;;;13.27;3.58;;;;;;;;;;4866924;29;20100;-89
2022/12/30 04:10:52;;;;;;;24.15;4.78;;;;;;;;;;4851902;29;20088;-88
2022/12/30 04:13:18;;;;;;;17.30;4.85;;;;;;;;;;4867178;29;20060;-88
2022/12/30 04:15:51;;;;;;;17.52;5.47;;;;;;;;;;4866700;29;20053;-88
2022/12/30 04:18:17;;;;;;;12.68;4.00;;;;;;;;;;4851409;29;20060;-89
2022/12/30 04:20:43;;;;;;;17.02;5.07;;;;;;;;;;4866941;29;20063;-88
2022/12/30 04:23:09;;;;;;;14.93;4.28;;;;;;;;;;4851244;29;20057;-88
2022/12/30 04:25:36;;;;;;;11.10;5.43;;;;;;;;;;4866380;29;20048;-89
2022/12/30 04:28:02;;;;;;;16.98;3.83;;;;;;;;;;4866378;29;20062;-88
2022/12/30 04:30:28;;;;;;;17.35;4.32;;;;;;;;;;4881918;29;20537;-88
2022/12/30 04:32:54;;;;;;;16.50;3.90;;;;;;;;;;4851393;29;20127;-88
2022/12/30 04:35:20;;;;;;;17.77;4.00;;;;;;;;;;4866471;29;20462;-89
2022/12/30 04:37:49;;;;;;;13.50;4.00;;;;;;;;;;4851004;29;20064;-88
2022/12/30 04:40:15;;;;;;;21.15;4.80;;;;;;;;;;4851702;29;20147;-92
2022/12/30 04:42:42;;;;;;;14.25;5.50;;;;;;;;;;4867264;29;20108;-92
2022/12/30 04:45:08;;;;;;;12.88;4.28;;;;;;;;;;4851896;29;20484;-91
2022/12/30 04:47:34;;;;;;;18.27;4.43;;;;;;;;;;4882661;29;20057;-92
2022/12/30 04:50:00;;;;;;;17.83;5.53;;;;;;;;;;4851727;29;20143;-91
2022/12/30 04:52:26;;;;;;;9.80;3.22;;;;;;;;;;4867078;29;20156;-92
2022/12/30 04:54:52;;;;;;;17.98;3.75;;;;;;;;;;4867053;29;20057;-91
2022/12/30 04:57:18;;;;;;;18.00;4.15;;;;;;;;;;4866923;29;20064;-92
2022/12/30 04:59:44;;;;;;;6.70;3.47;;;;;;;;;;4867376;29;20108;-92
2022/12/30 05:02:10;;;;;;;15.35;3.65;;;;;;;;;;4867172;29;20048;-93
2022/12/30 05:04:37;;;;;;;11.98;3.65;;;;;;;;;;4866938;29;20078;-92
2022/12/30 05:07:03;;;;;;;10.30;3.72;;;;;;;;;;4866847;29;20498;-91
2022/12/30 05:09:29;;;;;;;13.35;3.90;;;;;;;;;;4867580;29;20049;-92
2022/12/30 05:11:55;;;;;;;22.63;3.75;;;;;;;;;;4868632;29;20060;-92
2022/12/30 05:14:21;;;;;;;18.13;3.60;;;;;;;;;;4855331;29;20483;-92
2022/12/30 05:16:48;;;;;;;10.82;3.78;;;;;;;;;;4868103;29;20510;-91
2022/12/30 05:19:14;;;;;;;15.85;4.30;;;;;;;;;;4881843;29;20088;-89
2022/12/30 05:21:40;;;;;;;12.20;3.97;;;;;;;;;;4850600;29;20060;-88
2022/12/30 05:26:50;;;;;;;8.40;4.20;;;;;;;;;;4867817;29;20091;-89
2022/12/30 05:29:16;;;;;;;14.70;4.65;;;;;;;;;;4866056;29;20092;-89
2022/12/30 05:31:43;;;;;;;16.98;6.32;;;;;;;;;;4850432;29;20055;-89
2022/12/30 05:34:09;;;;;;;14.65;5.53;;;;;;;;;;4850690;29;20112;-89
2022/12/30 05:36:35;;;;;;;13.85;5.68;;;;;;;;;;4850528;29;20143;-88
2022/12/30 05:39:01;;;;;;;16.52;5.90;;;;;;;;;;4865758;29;20051;-89
2022/12/30 05:41:27;;;;;;;19.45;6.55;;;;;;;;;;4865740;29;20507;-89
2022/12/30 05:43:53;;;;;;;18.02;5.75;;;;;;;;;;4850631;29;20514;-89
2022/12/30 05:46:20;;;;;;;15.15;7.13;;;;;;;;;;4865958;29;20505;-88
2022/12/30 05:48:46;;;;;;;16.17;6.82;;;;;;;;;;4865897;29;20067;-88
2022/12/30 05:51:12;;;;;;;15.68;6.53;;;;;;;;;;4865725;29;20056;-89
2022/12/30 05:53:38;;;;;;;11.25;6.55;;;;;;;;;;4851410;29;20067;-88
2022/12/30 05:56:04;;;;;;;20.17;7.35;;;;;;;;;;4850281;29;20056;-88
2022/12/30 05:58:30;;;;;;;16.23;6.40;;;;;;;;;;4865647;29;20056;-88
2022/12/30 06:00:57;;;;;;;21.98;7.03;;;;;;;;;;4865808;29;20049;-89
2022/12/30 06:03:23;;;;;;;19.60;7.45;;;;;;;;;;4869177;29;20059;-89
2022/12/30 06:05:55;;;;;;;12.30;5.85;;;;;;;;;;4853842;29;20075;-89
2022/12/30 06:08:21;;;;;;;13.43;5.03;;;;;;;;;;4869185;29;20378;-89
2022/12/30 06:10:47;;;;;;;16.40;4.88;;;;;;;;;;4869896;29;20409;-88
2022/12/30 06:13:13;;;;;;;30.60;6.63;;;;;;;;;;4853956;29;20524;-88
2022/12/30 06:15:39;;;;;;;15.60;5.22;;;;;;;;;;4869059;29;20561;-88
2022/12/30 06:18:05;;;;;;;14.88;5.95;;;;;;;;;;4853675;29;20073;-88
2022/12/30 06:20:33;;;;;;;15.80;5.95;;;;;;;;;;4853794;29;20088;-89
2022/12/30 06:22:59;;;;;;;15.82;5.65;;;;;;;;;;4868595;29;20052;-88
2022/12/30 06:25:25;;;;;;;15.10;4.43;;;;;;;;;;4853683;29;20057;-89
2022/12/30 06:27:51;;;;;;;8.45;3.80;;;;;;;;;;4853161;29;20065;-88
2022/12/30 06:30:18;;;;;;;17.60;5.03;;;;;;;;;;4868834;29;20088;-89
2022/12/30 06:32:44;;;;;;;20.48;7.13;;;;;;;;;;4853675;29;20052;-88
2022/12/30 06:35:10;;;;;;;13.50;5.28;;;;;;;;;;4868466;29;20063;-88
2022/12/30 06:37:37;;;;;;;19.52;4.90;;;;;;;;;;4868657;29;20048;-89
2022/12/30 06:40:03;;;;;;;9.30;4.63;;;;;;;;;;4868649;29;20106;-89
2022/12/30 06:42:29;;;;;;;18.83;5.07;;;;;;;;;;4868763;29;20091;-88
2022/12/30 06:44:55;;;;;;;14.20;4.25;;;;;;;;;;4868801;29;20084;-88
2022/12/30 06:47:22;;;;;;;14.98;4.32;;;;;;;;;;4853254;29;20501;-88
2022/12/30 06:49:48;;;;;;;9.45;4.05;;;;;;;;;;4868391;29;20065;-89
2022/12/30 06:52:14;;;;;;;14.77;4.43;;;;;;;;;;4869085;29;20057;-92
2022/12/30 06:54:40;;;;;;;8.73;4.07;;;;;;;;;;4869165;29;20120;-92
2022/12/30 06:57:06;;;;;;;14.90;4.97;;;;;;;;;;4853471;29;20508;-92
2022/12/30 06:59:32;;;;;;;9.38;3.65;;;;;;;;;;4869125;29;20132;-93
2022/12/30 07:01:58;;;;;;;15.48;3.35;;;;;;;;;;4869129;29;20048;-92
2022/12/30 07:04:24;;;;;;;22.20;4.32;;;;;;;;;;4854366;29;20052;-93
2022/12/30 07:06:51;;;;;;;10.25;3.85;;;;;;;;;;4853784;29;20124;-93
2022/12/30 07:09:17;;;;;;;13.25;5.30;;;;;;;;;;4869054;29;20087;-92
2022/12/30 07:11:43;;;;;;;14.65;3.92;;;;;;;;;;4869082;29;20147;-91
2022/12/30 07:14:09;;;;;;;11.55;3.63;;;;;;;;;;4853312;29;20132;-93
2022/12/30 07:16:36;;;;;;;13.68;3.88;;;;;;;;;;4868623;29;20060;-93
2022/12/30 07:19:02;;;;;;;11.57;4.05;;;;;;;;;;4869325;29;20454;-92
2022/12/30 07:21:28;;;;;;;11.68;3.78;;;;;;;;;;4869066;29;20063;-93
2022/12/30 07:23:54;;;;;;;9.55;3.95;;;;;;;;;;4868950;29;20048;-91
2022/12/30 07:26:20;;;;;;;12.38;4.22;;;;;;;;;;4868369;29;20061;-92
2022/12/30 07:28:46;;;;;;;14.68;4.82;;;;;;;;;;4868309;29;20096;-89
2022/12/30 07:31:12;;;;;;;12.98;4.40;;;;;;;;;;4852581;29;20071;-89
2022/12/30 07:33:39;;;;;;;12.10;3.95;;;;;;;;;;4852537;29;20055;-89
2022/12/30 07:36:05;;;;;;;8.80;4.57;;;;;;;;;;4868081;29;20414;-89
2022/12/30 07:38:31;;;;;;;26.27;4.15;;;;;;;;;;4867441;29;20048;-89
2022/12/30 07:40:57;;;;;;;12.48;3.72;;;;;;;;;;4852258;29;20068;-89
2022/12/30 07:43:23;;;;;;;11.65;3.75;;;;;;;;;;4851881;29;20083;-89
2022/12/30 07:45:49;;;;;;;12.07;4.53;;;;;;;;;;4867659;29;20146;-89
2022/12/30 07:48:15;;;;;;;12.10;3.65;;;;;;;;;;4867491;29;20045;-89
2022/12/30 07:50:41;;;;;;;8.23;3.28;;;;;;;;;;4852052;29;20108;-89
2022/12/30 07:53:08;;;;;;;16.52;4.05;;;;;;;;;;4882609;29;20120;-89
2022/12/30 07:55:34;;;;;;;13.00;3.60;;;;;;;;;;4867101;29;20052;-89
2022/12/30 07:58:00;;;;;;;12.45;4.50;;;;;;;;;;4852183;29;20057;-89
2022/12/30 08:00:29;;;;;;;14.98;3.25;;;;;;;;;;4884540;23;20080;-89
2022/12/30 08:03:01;;;;;;;11.50;2.90;;;;;;;;;;4906274;23;20421;-91
2022/12/30 08:05:28;;;;;;;12.27;3.05;;;;;;;;;;4947955;23;20046;-89
2022/12/30 08:07:54;;;;;;;10.10;3.63;;;;;;;;;;4896821;23;20052;-88
2022/12/30 08:10:20;;;;;;;7.28;2.95;;;;;;;;;;4912078;23;20052;-89
2022/12/30 08:12:47;;;;;;;14.73;3.97;;;;;;;;;;4886041;29;20047;-89
2022/12/30 08:15:13;;;;;;;7.53;2.78;;;;;;;;;;4890113;23;20478;-89
2022/12/30 08:18:45;;;;;;;10.07;3.47;;;4.70;99.90;;;;;;4888410;23;20052;-95
2022/12/30 08:21:27;;;;;;;10.50;3.63;;;;;;;;;;4901769;29;20150;-93
2022/12/30 15:45:45;;;;;;;5.28;2.80;;;;;;;;;;4898299;29;20074;-92
2022/12/30 15:48:59;;;;;;;4.53;1.80;;;;;;;;;;4887413;29;20130;-92
2022/12/30 15:52:04;;;;;;;;;;;;;;;;;;;;;
2022/12/30 16:08:02;;;;;;;;;;;;;;;;;;;;;
2022/12/30 16:21:54;;;;;;;;;;;;;;;;;;;;;
2022/12/30 17:07:39;;;;;;;2.13;1.92;;;;;;;;;;4914926;29;20067;-92
2022/12/30 17:22:24;;;;;;;2.67;2.47;;;;;;;;;;4971014;23;20584;-91
2022/12/30 17:25:32;;;;;;;4.97;2.60;;;;;;;;;;4867447;29;20063;-91
2022/12/30 17:32:08;;;;;;;4.63;4.15;;;;;;;;;;4859993;29;20529;-91
2022/12/30 17:54:50;;;;;;;8.65;6.68;;;;;;;;;;4887053;29;20421;-91
2022/12/30 18:01:55;;;;;;;2.83;2.50;;;9.10;99.90;;;;;;4921439;29;20047;-91
2022/12/30 18:04:37;;;;;;;3.63;3.33;;;;;;;;;;4889157;29;20055;-92
2022/12/30 18:07:12;;;;;;;4.45;2.85;;;;;;;;;;4873879;29;20047;-91
2022/12/30 18:09:42;;;;;;;3.63;3.33;;;;;;;;;;4865871;29;20049;-92
2022/12/30 18:12:15;;;;;;;3.10;2.80;;;;;;;;;;4835552;29;20045;-91
2022/12/30 18:14:46;;;;;;;4.40;3.40;;;;;;;;;;4850782;29;20057;-91
2022/12/30 18:17:27;;;;;;;4.38;3.80;;;;;;;;;;4851211;29;20616;-91
2022/12/30 18:26:43;;;;;;;5.40;3.58;;;;;;;;;;4865368;29;20057;-91
2022/12/30 18:32:37;;;;;;;4.63;3.35;;;;;;;;;;4881016;29;20113;-90
2022/12/30 18:35:14;;;;;;;6.88;5.45;;;;;;;;;;4850157;29;20064;-91
2022/12/30 18:37:40;;;;;;;4.15;3.75;;;;;;;;;;4848663;29;20065;-91
2022/12/30 18:40:25;;;;;;;7.28;4.88;;;;;;;;;;4883333;29;20042;-91
2022/12/30 18:42:51;;;;;;;8.10;5.20;;;;;;;;;;4887530;29;20059;-91
2022/12/30 18:45:22;;;;;;;8.25;5.20;;;;;;;;;;4888908;29;20055;-91
2022/12/30 18:47:57;;;;;;;6.03;4.82;;;;;;;;;;4888656;29;20425;-89
2022/12/30 18:50:28;;;;;;;8.55;4.80;;;;;;;;;;4888173;29;20040;-90
2022/12/30 18:52:57;;;;;;;6.32;3.97;;;;;;;;;;4887797;29;20063;-92
2022/12/30 18:55:31;;;;;;;10.18;5.88;;;;;;;;;;4873003;29;20056;-91
2022/12/30 18:57:57;;;;;;;9.55;6.18;;;;;;;;;;4865254;29;20053;-92
2022/12/30 19:00:32;;;;;;;7.68;5.75;;;;;;;;;;4850859;29;20537;-92
2022/12/30 19:02:58;;;;;;;10.95;6.20;;;;;;;;;;4849445;29;20057;-92
2022/12/30 19:05:25;;;;;;;5.28;4.32;;;;;;;;;;4850427;29;20434;-91
2022/12/30 19:07:51;;;;;;;8.75;6.13;;;;;;;;;;4848643;29;20056;-90
2022/12/30 19:10:17;;;;;;;6.18;4.47;;;;;;;;;;4849498;29;20049;-90
2022/12/30 19:12:44;;;;;;;6.97;4.25;;;;;;;;;;4834033;29;20562;-89
2022/12/30 19:15:10;;;;;;;10.32;3.75;;;;;;;;;;4848471;29;20053;-88
2022/12/30 19:17:36;;;;;;;9.27;3.75;;;;;;;;;;4879424;29;20526;-89
2022/12/30 19:20:03;;;;;;;10.85;3.90;;;;;;;;;;4848747;29;20053;-90
2022/12/30 19:22:29;;;;;;;13.27;3.05;;;;;;;;;;4867528;29;20481;-89
2022/12/30 19:24:55;;;;;;;11.55;3.92;;;;;;;;;;4902322;29;20067;-89
2022/12/30 19:27:21;;;;;;;10.98;3.70;;;;;;;;;;4871883;29;20397;-89
2022/12/30 19:29:47;;;;;;;9.95;3.25;;;;;;;;;;4871707;29;20556;-89
2022/12/30 19:32:13;;;;;;;9.13;2.65;;;;;;;;;;4901881;29;20135;-89
2022/12/30 19:34:40;;;;;;;12.80;3.13;;;;;;;;;;4886203;29;20138;-90
2022/12/30 19:37:06;;;;;;;11.93;3.63;;;;;;;;;;4886364;29;20485;-89
2022/12/30 19:39:32;;;;;;;13.10;3.58;;;;;;;;;;4886917;29;20142;-90
2022/12/30 19:41:58;;;;;;;13.25;3.30;;;;;;;;;;4870771;29;20048;-90
2022/12/30 19:44:25;;;;;;;10.70;3.38;;;;;;;;;;4870958;29;20116;-89
2022/12/30 19:46:51;;;;;;;13.18;3.50;;;;;;;;;;4886815;29;20056;-89
2022/12/30 19:49:19;;;;;;;19.02;4.03;;;;;;;;;;4886342;29;20052;-89
2022/12/30 19:51:45;;;;;;;15.38;3.58;;;;;;;;;;4886681;29;20048;-89
2022/12/30 19:54:12;;;;;;;27.20;5.05;;;;;;;;;;4886049;29;20056;-90
2022/12/30 19:56:38;;;;;;;6.95;3.33;;;;;;;;;;4885738;29;20056;-89
2022/12/30 19:59:05;;;;;;;8.02;2.78;;;;;;;;;;4886202;29;20405;-89
2022/12/30 20:01:31;;;;;;;10.30;3.20;;;;;;;;;;4885792;29;20059;-89
2022/12/30 20:04:01;;;;;;;9.65;2.75;;;;;;;;;;4870727;29;20401;-89
2022/12/30 20:06:29;;;;;;;13.60;4.72;;;;;;;;;;4886103;29;20421;-89
2022/12/30 20:08:55;;;;;;;13.27;3.92;;;;;;;;;;4886294;29;20044;-89
2022/12/30 20:11:23;;;;;;;18.25;4.22;;;;;;;;;;4885719;29;20094;-89
2022/12/30 20:13:50;;;;;;;19.55;4.32;;;;;;;;;;4901237;29;20052;-90
2022/12/30 20:16:18;;;;;;;19.02;5.50;;;;;;;;;;4885867;29;20614;-89
2022/12/30 20:18:49;;;;;;;16.38;5.43;;;;;;;;;;4886155;29;20139;-90
2022/12/30 20:21:15;;;;;;;10.98;3.80;;;;;;;;;;4885296;29;20052;-90
2022/12/30 20:23:42;;;;;;;15.35;5.68;;;;;;;;;;4886187;29;20063;-89
2022/12/30 20:26:13;;;;;;;14.55;4.78;;;;;;;;;;4886061;29;20517;-89
2022/12/30 20:28:39;;;;;;;12.90;4.60;;;;;;;;;;4886672;29;20048;-89
2022/12/30 20:31:08;;;;;;;13.32;3.75;;;;;;;;;;4885822;29;20131;-89
2022/12/30 20:33:34;;;;;;;16.00;3.25;;;;;;;;;;4885593;29;20056;-89
2022/12/30 20:36:01;;;;;;;24.98;6.63;;;;;;;;;;4885909;29;20569;-88
2022/12/30 20:38:28;;;;;;;13.40;3.88;;;;;;;;;;4885977;29;20063;-89
2022/12/30 20:41:04;;;;;;;17.30;3.53;;;;;;;;;;4870759;29;20052;-89
2022/12/30 20:43:31;;;;;;;14.23;4.03;;;;;;;;;;4885793;29;20056;-89
2022/12/30 20:46:05;;;;;;;15.30;4.22;;;;;;;;;;4885557;29;20095;-89
2022/12/30 20:48:31;;;;;;;18.38;3.65;;;;;;;;;;4870143;29;20556;-89
2022/12/30 20:50:58;;;;;;;17.80;4.10;;;;;;;;;;4885401;29;20055;-89
2022/12/30 20:53:25;;;;;;;11.35;3.30;;;;;;;;;;4917545;29;20062;-89
2022/12/30 20:55:51;;;;;;;16.92;3.70;;;;;;;;;;4884991;29;20580;-89
2022/12/30 20:58:17;;;;;;;15.73;4.47;;;;;;;;;;4900786;29;20095;-89
2022/12/30 21:00:43;;;;;;;21.42;4.43;;;;;;;;;;4885092;29;20058;-89
2022/12/30 21:03:10;;;;;;;14.18;4.10;;;;;;;;;;4885707;29;20524;-89
2022/12/30 21:05:36;;;;;;;10.98;2.80;;;;;;;;;;4886309;29;20075;-89
2022/12/30 21:08:02;;;;;;;14.65;4.72;;;;;;;;;;4885376;29;20047;-89
2022/12/30 21:10:29;;;;;;;24.45;3.80;;;;;;;;;;4885395;29;20131;-89
2022/12/30 21:12:55;;;;;;;15.23;2.88;;;;;;;;;;4885200;29;20421;-89
2022/12/30 21:15:23;;;;;;;18.73;3.78;;;;;;;;;;4885141;29;20071;-89
2022/12/30 21:17:49;;;;;;;15.20;3.08;;;;;;;;;;4900734;29;20060;-89
2022/12/30 21:20:15;;;;;;;11.68;4.03;;;;;;;;;;4900451;29;20505;-89
2022/12/30 21:22:41;;;;;;;15.95;3.65;;;;;;;;;;4885117;29;20052;-89
2022/12/30 21:25:07;;;;;;;15.80;4.40;;;;;;;;;;4884745;29;20090;-89
2022/12/30 21:27:36;;;;;;;9.82;2.80;;;;;;;;;;4885407;29;20112;-88
2022/12/30 21:30:03;;;;;;;7.75;3.08;;;;;;;;;;4900536;29;20048;-89
2022/12/30 21:32:29;;;;;;;13.80;4.47;;;;;;;;;;4888059;29;20501;-89
2022/12/30 21:34:55;;;;;;;16.67;4.95;;;;;;;;;;4889036;29;20083;-89
2022/12/30 21:37:23;;;;;;;16.77;3.75;;;;;;;;;;4888563;29;20090;-89
2022/12/30 22:04:59;;;;;;;14.32;3.70;;;;;;;;;;4903898;29;20058;-90
2022/12/30 22:07:26;;;;;;;8.57;3.05;;;;;;;;;;4888357;29;20090;-89
2022/12/30 22:09:52;;;;;;;8.23;2.90;;;;;;;;;;4888303;29;20083;-91
2022/12/30 22:12:18;;;;;;;19.13;3.65;;;;;;;;;;4873559;29;20134;-89
2022/12/30 22:14:44;;;;;;;18.35;7.65;;;;;;;;;;4888972;29;20545;-90
2022/12/30 22:17:12;;;;;;;7.60;2.83;;;;;;;;;;4888267;29;20148;-90
2022/12/30 22:19:39;;;;;;;12.40;3.05;;;;;;;;;;4888163;29;20044;-90
2022/12/30 22:22:05;;;;;;;13.10;3.05;;;;;;;;;;4888225;29;20095;-90
2022/12/30 22:24:32;;;;;;;19.05;3.20;;;;;;;;;;4872010;29;20530;-88
2022/12/30 22:26:58;;;;;;;16.42;3.60;;;;;;;;;;4903568;29;20119;-88
2022/12/30 22:29:24;;;;;;;7.38;2.75;;;;;;;;;;4887517;29;20063;-88
2022/12/30 22:31:50;;;;;;;10.23;2.75;;;;;;;;;;4872099;29;20060;-89
2022/12/30 22:34:16;;;;;;;17.52;3.30;;;;;;;;;;4903747;29;20044;-88
2022/12/30 22:36:43;;;;;;;10.73;2.40;;;;;;;;;;4887482;29;20485;-88
2022/12/30 22:39:09;;;;;;;10.57;2.63;;;;;;;;;;4887811;29;20052;-89
2022/12/30 22:41:35;;;;;;;13.43;2.83;;;;;;;;;;4887423;29;20048;-88
2022/12/30 22:44:01;;;;;;;13.32;3.03;;;;;;;;;;4887705;29;20087;-88
2022/12/30 22:46:27;;;;;;;11.57;3.13;;;;;;;;;;4902857;29;20052;-89
2022/12/30 22:48:54;;;;;;;9.48;2.67;;;;;;;;;;4871960;29;20091;-88
2022/12/30 22:51:20;;;;;;;7.32;2.60;;;;;;;;;;4903480;29;20080;-88
2022/12/30 22:53:46;;;;;;;4.50;2.05;;;;;;;;;;4887274;29;20070;-88
2022/12/30 22:56:12;;;;;;;13.50;2.40;;;;;;;;;;4872134;29;20135;-88
2022/12/30 22:58:40;;;;;;;10.25;3.40;;;;;;;;;;4887588;29;20086;-88
2022/12/30 23:01:06;;;;;;;7.72;2.20;;;;;;;;;;4872261;29;20059;-88
2022/12/30 23:03:32;;;;;;;10.55;2.88;;;;;;;;;;4872069;29;20052;-88
2022/12/30 23:05:59;;;;;;;9.57;2.10;;;;;;;;;;4887400;29;20048;-89
2022/12/30 23:08:25;;;;;;;7.03;2.45;;;;;;;;;;4887550;29;20051;-89
2022/12/30 23:10:51;;;;;;;7.35;2.75;;;;;;;;;;4887594;29;20490;-88
2022/12/30 23:16:09;;;;;;;10.88;3.03;;;;;;;;;;4903145;29;20052;-88
2022/12/30 23:18:40;;;;;;;7.38;2.47;;;;;;;;;;4887129;29;20051;-88
2022/12/30 23:21:07;;;;;;;11.82;2.75;;;;;;;;;;4919766;29;20052;-89
2022/12/30 23:26:18;;;;;;;10.57;2.78;;;;;;;;;;4902230;29;20121;-88
2022/12/30 23:28:44;;;;;;;5.90;2.72;;;;;;;;;;4871589;29;20489;-89
2022/12/30 23:31:11;;;;;;;10.43;2.75;;;;;;;;;;4887044;29;20053;-88
2022/12/30 23:33:37;;;;;;;22.55;3.88;;;;;;;;;;4886657;29;20060;-88
2022/12/30 23:36:04;;;;;;;15.20;2.30;;;;;;;;;;4886533;29;20052;-88
2022/12/30 23:38:30;;;;;;;19.73;2.90;;;;;;;;;;4886336;29;20044;-88
2022/12/30 23:40:56;;;;;;;12.27;3.30;;;;;;;;;;4886326;29;20056;-88
2022/12/30 23:43:22;;;;;;;12.00;3.17;;;;;;;;;;4870955;29;20060;-88
2022/12/30 23:45:52;;;;;;;14.27;3.00;;;;;;;;;;4886783;29;20055;-88
2022/12/30 23:48:18;;;;;;;14.90;3.08;;;;;;;;;;4886512;29;20048;-88
2022/12/30 23:50:44;;;;;;;8.80;3.22;;;;;;;;;;4870751;29;20048;-88
2022/12/30 23:53:10;;;;;;;9.95;2.85;;;;;;;;;;4886438;29;20130;-89
2022/12/30 23:55:37;;;;;;;11.32;3.25;;;;;;;;;;4885902;29;20510;-88
2022/12/30 23:58:03;;;;;;;13.90;3.22;;;;;;;;;;4870705;29;20055;-88
